Time;durP1;ratioP1;P1;durP2;ratioP2;P2;SDS_P1;SDS_P2;PMS_P1;PMS_P2;Temp;Humidity;BMP_temperature;BMP_pressure;BME280_temperature;BME280_humidity;BME280_pressure;Samples;Min_cycle;Max_cycle;Signal;HPM_P1;HPM_P2
2022/11/17 00:01:05;;;;;;;2.97;2.00;;;20.90;99.90;;;;;;4159655;28;20285;-77
2022/11/17 00:03:07;;;;;;;2.75;1.70;;;20.90;99.90;;;;;;4155918;28;20227;-77
2022/11/17 00:05:10;;;;;;;3.63;2.13;;;20.90;99.90;;;;;;4163094;28;20228;-77
2022/11/17 00:07:12;;;;;;;4.40;2.20;;;20.90;99.90;;;;;;4149996;28;20233;-77
2022/11/17 00:09:17;;;;;;;3.55;1.70;;;20.90;99.90;;;;;;4158328;28;20251;-77
2022/11/17 00:11:19;;;;;;;3.78;1.83;;;20.90;99.90;;;;;;4152085;28;20602;-77
2022/11/17 00:15:43;;;;;;;3.53;2.05;;;20.80;99.90;;;;;;4160050;28;20197;-77
2022/11/17 00:17:47;;;;;;;3.20;1.75;;;20.90;99.90;;;;;;4159826;28;20282;-76
2022/11/17 00:22:07;;;;;;;2.35;1.48;;;20.80;99.90;;;;;;4128219;28;20626;-76
2022/11/17 00:24:10;;;;;;;2.35;1.83;;;20.80;99.90;;;;;;4156283;28;20241;-76
2022/11/17 00:26:14;;;;;;;2.25;1.60;;;20.80;99.90;;;;;;4161595;28;20220;-76
2022/11/17 00:28:17;;;;;;;2.80;1.90;;;20.80;99.90;;;;;;4155975;28;20216;-76
2022/11/17 00:34:58;;;;;;;2.88;1.77;;;20.80;99.90;;;;;;4159765;28;20200;-77
2022/11/17 00:37:00;;;;;;;1.92;1.40;;;20.80;99.90;;;;;;4163132;28;20216;-76
2022/11/17 00:39:03;;;;;;;2.45;1.52;;;20.70;99.90;;;;;;4162999;28;20648;-76
2022/11/17 00:41:05;;;;;;;2.78;1.60;;;20.70;99.90;;;;;;4162842;28;20208;-77
2022/11/17 00:43:09;;;;;;;2.63;1.67;;;20.80;99.90;;;;;;4158120;28;20252;-76
2022/11/17 00:45:12;;;;;;;2.67;1.60;;;20.70;99.90;;;;;;4161988;28;20253;-76
2022/11/17 00:47:14;;;;;;;2.28;1.67;;;20.70;99.90;;;;;;4163252;28;20220;-76
2022/11/17 00:49:16;;;;;;;2.08;1.60;;;20.70;99.90;;;;;;4162709;28;20544;-76
2022/11/17 00:51:19;;;;;;;2.85;1.80;;;20.70;99.90;;;;;;4157575;28;20267;-76
2022/11/17 00:53:21;;;;;;;3.10;2.00;;;20.70;99.90;;;;;;4162476;28;20260;-76
2022/11/17 00:55:24;;;;;;;2.90;1.60;;;20.70;99.90;;;;;;4162434;28;20219;-76
2022/11/17 00:57:26;;;;;;;2.75;1.48;;;20.70;99.90;;;;;;4157841;28;20212;-76
2022/11/17 00:59:29;;;;;;;2.35;1.50;;;20.70;99.90;;;;;;4174999;28;20227;-76
2022/11/17 01:01:32;;;;;;;1.98;1.67;;;20.70;99.90;;;;;;4178853;28;20640;-76
2022/11/17 01:03:35;;;;;;;3.78;1.80;;;20.70;99.90;;;;;;4174099;28;20294;-76
2022/11/17 01:05:37;;;;;;;3.65;1.90;;;20.70;99.90;;;;;;4178574;28;20220;-76
2022/11/17 01:07:39;;;;;;;2.28;1.50;;;20.70;99.90;;;;;;4179234;28;20212;-76
2022/11/17 01:09:42;;;;;;;3.65;1.80;;;20.70;99.90;;;;;;4171301;28;20318;-76
2022/11/17 01:11:45;;;;;;;2.00;1.63;;;20.60;99.90;;;;;;4179356;28;20211;-76
2022/11/17 01:13:48;;;;;;;2.65;1.50;;;20.70;99.90;;;;;;4172610;28;20253;-76
2022/11/17 01:15:51;;;;;;;1.73;1.50;;;20.60;99.90;;;;;;4177598;28;20261;-76
2022/11/17 01:17:54;;;;;;;5.82;1.70;;;20.60;99.90;;;;;;4172590;28;20221;-76
2022/11/17 01:19:56;;;;;;;3.55;1.77;;;20.60;99.90;;;;;;4168137;28;20730;-77
2022/11/17 01:21:58;;;;;;;3.13;1.30;;;20.60;99.90;;;;;;4178132;28;20591;-76
2022/11/17 01:24:01;;;;;;;3.38;1.52;;;20.60;99.90;;;;;;4174626;28;20927;-76
2022/11/17 01:26:06;;;;;;;2.88;1.73;;;20.60;99.90;;;;;;4165273;28;20212;-77
2022/11/17 01:28:09;;;;;;;3.10;1.70;;;20.60;99.90;;;;;;4175451;28;20273;-76
2022/11/17 01:30:12;;;;;;;2.35;1.58;;;20.60;99.90;;;;;;4176930;28;20613;-77
2022/11/17 01:32:16;;;;;;;3.22;1.75;;;20.60;99.90;;;;;;4166871;28;20322;-77
2022/11/17 01:34:18;;;;;;;3.67;1.48;;;20.60;99.90;;;;;;4178196;28;20265;-77
2022/11/17 01:36:23;;;;;;;3.60;1.50;;;20.60;99.90;;;;;;4178504;28;20322;-76
2022/11/17 01:38:25;;;;;;;3.60;1.58;;;20.60;99.90;;;;;;4173175;28;20253;-77
2022/11/17 01:40:27;;;;;;;2.55;1.50;;;20.60;99.90;;;;;;4178125;28;20219;-77
2022/11/17 01:42:30;;;;;;;2.85;1.60;;;20.60;99.90;;;;;;4176432;28;20215;-76
2022/11/17 01:44:55;;;;;;;3.50;1.73;;;20.60;99.90;;;;;;4175373;28;20695;-76
2022/11/17 01:46:58;;;;;;;3.40;1.52;;;20.60;99.90;;;;;;4176463;28;20623;-77
2022/11/17 01:49:07;;;;;;;2.53;1.40;;;20.60;99.90;;;;;;4173437;28;20261;-77
2022/11/17 01:51:10;;;;;;;3.13;1.65;;;20.60;99.90;;;;;;4164401;28;20951;-76
2022/11/17 01:53:16;;;;;;;2.60;1.65;;;20.60;99.90;;;;;;4170053;28;20231;-76
2022/11/17 01:55:21;;;;;;;3.55;1.42;;;20.60;99.90;;;;;;4174634;28;20208;-76
2022/11/17 01:57:28;;;;;;;2.90;1.40;;;20.60;99.90;;;;;;4173869;28;20227;-77
2022/11/17 01:59:37;;;;;;;2.30;1.60;;;20.60;99.90;;;;;;4164990;28;20233;-77
2022/11/17 02:01:54;;;;;;;2.70;1.60;;;20.60;99.90;;;;;;4157198;28;20266;-76
2022/11/17 02:03:56;;;;;;;2.90;1.60;;;20.60;99.90;;;;;;4154839;28;20244;-76
2022/11/17 02:06:04;;;;;;;3.15;1.50;;;20.50;99.90;;;;;;4158313;28;20225;-77
2022/11/17 02:08:07;;;;;;;2.95;1.67;;;20.60;99.90;;;;;;4161513;28;20224;-76
2022/11/17 02:10:10;;;;;;;4.60;1.60;;;20.50;99.90;;;;;;4154495;28;20220;-76
2022/11/17 02:12:14;;;;;;;3.15;1.35;;;20.50;99.90;;;;;;4151126;28;20220;-76
2022/11/17 02:14:17;;;;;;;4.18;1.55;;;20.50;99.90;;;;;;4157437;28;20228;-76
2022/11/17 02:16:19;;;;;;;3.53;1.80;;;20.50;99.90;;;;;;4165575;28;20266;-76
2022/11/17 02:18:21;;;;;;;2.85;1.60;;;20.60;99.90;;;;;;4156038;28;20216;-76
2022/11/17 02:20:40;;;;;;;3.58;1.85;;;20.50;99.90;;;;;;4160112;28;20216;-76
2022/11/17 02:23:04;;;;;;;4.03;1.70;;;20.50;99.90;;;;;;4150964;28;20668;-77
2022/11/17 02:25:31;;;;;;;2.63;1.30;;;20.50;99.90;;;;;;4159857;28;20236;-76
2022/11/17 02:28:09;;;;;;;1.60;1.40;;;20.50;99.90;;;;;;4161150;28;20319;-76
2022/11/17 02:30:16;;;;;;;4.38;1.77;;;20.50;99.90;;;;;;4151469;28;20266;-76
2022/11/17 02:32:24;;;;;;;3.13;1.50;;;20.50;99.90;;;;;;4149912;28;20293;-76
2022/11/17 02:34:35;;;;;;;3.38;1.77;;;20.50;99.90;;;;;;4153588;28;20262;-77
2022/11/17 02:36:43;;;;;;;2.60;1.40;;;20.50;99.90;;;;;;4170790;28;20292;-76
2022/11/17 02:38:54;;;;;;;3.17;1.92;;;20.40;99.90;;;;;;4161039;28;20216;-76
2022/11/17 02:41:04;;;;;;;3.22;1.50;;;20.50;99.90;;;;;;4154201;28;20631;-77
2022/11/17 02:45:35;;;;;;;3.20;1.38;;;20.50;99.90;;;;;;4161837;28;20221;-77
2022/11/17 02:47:41;;;;;;;4.40;1.90;;;20.40;99.90;;;;;;4158075;28;20212;-76
2022/11/17 02:49:47;;;;;;;2.95;1.55;;;20.50;99.90;;;;;;4160542;28;20270;-76
2022/11/17 02:51:53;;;;;;;2.30;1.50;;;20.40;99.90;;;;;;4161589;28;20208;-76
2022/11/17 02:53:58;;;;;;;3.70;1.90;;;20.40;99.90;;;;;;4158977;28;20208;-76
2022/11/17 02:56:02;;;;;;;3.13;1.48;;;20.40;99.90;;;;;;4159863;28;20273;-76
2022/11/17 02:58:09;;;;;;;1.63;1.20;;;20.40;99.90;;;;;;4160855;28;20224;-76
2022/11/17 03:00:14;;;;;;;4.15;1.52;;;20.40;99.90;;;;;;4171910;28;20298;-76
2022/11/17 03:02:33;;;;;;;3.15;1.45;;;20.40;99.90;;;;;;4175364;28;20267;-76
2022/11/17 03:04:45;;;;;;;4.75;1.70;;;20.40;99.90;;;;;;4185170;28;21069;-76
2022/11/17 03:07:04;;;;;;;3.42;1.70;;;20.40;99.90;;;;;;4172619;28;20211;-77
2022/11/17 03:09:14;;;;;;;3.03;1.50;;;20.40;99.90;;;;;;4178575;28;20631;-77
2022/11/17 03:11:22;;;;;;;3.40;1.70;;;20.40;99.90;;;;;;4176895;28;20220;-76
2022/11/17 03:13:34;;;;;;;2.50;1.48;;;20.40;99.90;;;;;;4184978;28;20726;-76
2022/11/17 03:15:48;;;;;;;2.85;1.80;;;20.40;99.90;;;;;;4181155;28;20269;-76
2022/11/17 03:18:01;;;;;;;3.97;1.80;;;20.40;99.90;;;;;;4174553;28;20262;-77
2022/11/17 03:20:10;;;;;;;3.88;1.63;;;20.40;99.90;;;;;;4180602;28;20269;-76
2022/11/17 03:22:21;;;;;;;3.15;1.70;;;20.30;99.90;;;;;;4181039;28;20265;-76
2022/11/17 03:24:27;;;;;;;3.80;1.38;;;20.40;99.90;;;;;;4171526;28;20306;-76
2022/11/17 03:26:33;;;;;;;2.30;1.30;;;20.30;99.90;;;;;;4185850;28;20207;-76
2022/11/17 03:28:39;;;;;;;3.33;1.77;;;20.40;99.90;;;;;;4177911;28;20234;-76
2022/11/17 03:30:44;;;;;;;2.47;1.30;;;20.40;99.90;;;;;;4176480;28;20220;-76
2022/11/17 03:32:50;;;;;;;3.53;1.70;;;20.40;99.90;;;;;;4178757;28;20721;-77
2022/11/17 03:34:55;;;;;;;3.60;1.60;;;20.30;99.90;;;;;;4173267;28;20211;-76
2022/11/17 03:37:02;;;;;;;3.28;1.50;;;20.30;99.90;;;;;;4178842;28;20220;-76
2022/11/17 03:39:08;;;;;;;4.88;1.80;;;20.40;99.90;;;;;;4178423;28;20223;-76
2022/11/17 03:41:14;;;;;;;3.55;1.27;;;20.40;99.90;;;;;;4176280;28;20212;-76
2022/11/17 03:43:18;;;;;;;4.55;1.70;;;20.30;99.90;;;;;;4176778;28;20683;-76
2022/11/17 03:45:25;;;;;;;3.72;1.27;;;20.30;99.90;;;;;;4175831;28;20297;-76
2022/11/17 03:47:30;;;;;;;4.22;1.70;;;20.40;99.90;;;;;;4174654;28;20274;-76
2022/11/17 03:49:40;;;;;;;4.20;1.40;;;20.30;99.90;;;;;;4179220;28;20211;-76
2022/11/17 03:51:43;;;;;;;3.90;1.90;;;20.40;99.90;;;;;;4176302;28;21045;-76
2022/11/17 03:53:46;;;;;;;3.60;1.40;;;20.30;99.90;;;;;;4176830;28;20219;-76
2022/11/17 03:55:55;;;;;;;2.95;1.25;;;20.30;99.90;;;;;;4177953;28;20266;-76
2022/11/17 03:58:03;;;;;;;4.70;1.67;;;20.30;99.90;;;;;;4174933;28;20272;-77
2022/11/17 04:00:07;;;;;;;4.47;1.48;;;20.30;99.90;;;;;;4175743;28;20222;-76
2022/11/17 04:02:14;;;;;;;3.25;1.40;;;20.30;99.90;;;;;;4175507;28;20598;-76
2022/11/17 04:04:18;;;;;;;3.28;1.70;;;20.30;99.90;;;;;;4176333;28;20713;-76
2022/11/17 04:06:20;;;;;;;2.75;1.40;;;20.30;99.90;;;;;;4179328;28;20679;-76
2022/11/17 04:08:24;;;;;;;2.95;1.40;;;20.30;99.90;;;;;;4174232;28;20216;-76
2022/11/17 04:10:27;;;;;;;3.72;1.50;;;20.30;99.90;;;;;;4174785;28;20215;-76
2022/11/17 04:17:08;;;;;;;3.38;1.65;;;20.30;99.90;;;;;;4178624;28;20200;-76
2022/11/17 04:19:12;;;;;;;2.50;1.50;;;20.30;99.90;;;;;;4178546;28;20224;-76
2022/11/17 04:21:14;;;;;;;4.93;1.33;;;20.30;99.90;;;;;;4172609;28;20334;-77
2022/11/17 04:23:17;;;;;;;3.08;1.50;;;20.30;99.90;;;;;;4178455;28;20216;-77
2022/11/17 04:30:04;;;;;;;3.30;1.55;;;20.30;99.90;;;;;;4141843;28;20717;-76
2022/11/17 04:32:06;;;;;;;3.80;1.70;;;20.30;99.90;;;;;;4176241;28;21307;-76
2022/11/17 04:34:09;;;;;;;3.67;1.55;;;20.30;99.90;;;;;;4178757;28;20592;-76
2022/11/17 04:36:15;;;;;;;3.90;1.45;;;20.20;99.90;;;;;;4177428;28;20216;-76
2022/11/17 04:38:17;;;;;;;2.22;1.17;;;20.20;99.90;;;;;;4172681;28;20269;-76
2022/11/17 04:40:20;;;;;;;3.60;1.38;;;20.20;99.90;;;;;;4180410;28;20625;-76
2022/11/17 04:42:21;;;;;;;2.83;1.35;;;20.20;99.90;;;;;;4175252;28;20227;-76
2022/11/17 04:44:25;;;;;;;4.10;1.48;;;20.20;99.90;;;;;;4174267;28;20211;-76
2022/11/17 04:46:29;;;;;;;4.43;1.65;;;20.30;99.90;;;;;;4177736;28;20251;-77
2022/11/17 04:48:31;;;;;;;5.40;1.52;;;20.30;99.90;;;;;;4175827;28;20215;-76
2022/11/17 04:50:34;;;;;;;2.38;1.27;;;20.20;99.90;;;;;;4174184;28;20261;-76
2022/11/17 04:52:38;;;;;;;6.03;1.77;;;20.30;99.90;;;;;;4179853;28;20216;-77
2022/11/17 04:54:40;;;;;;;3.03;1.40;;;20.20;99.90;;;;;;4176048;28;20220;-76
2022/11/17 04:56:42;;;;;;;2.67;1.35;;;20.20;99.90;;;;;;4177169;28;20266;-76
2022/11/17 04:58:45;;;;;;;3.30;1.50;;;20.20;99.90;;;;;;4165368;28;20244;-76
2022/11/17 05:00:47;;;;;;;3.17;1.58;;;20.20;99.90;;;;;;4161346;28;20298;-76
2022/11/17 05:02:49;;;;;;;2.95;1.42;;;20.20;99.90;;;;;;4160305;28;20312;-76
2022/11/17 05:04:58;;;;;;;3.15;1.52;;;20.20;99.90;;;;;;4161202;28;20224;-76
2022/11/17 05:07:00;;;;;;;3.05;1.27;;;20.20;99.90;;;;;;4158643;28;20223;-76
2022/11/17 05:09:06;;;;;;;4.43;2.13;;;20.20;99.90;;;;;;4167667;28;20657;-76
2022/11/17 05:13:28;;;;;;;4.15;1.35;;;20.10;99.90;;;;;;4161271;28;20197;-76
2022/11/17 05:17:47;;;;;;;3.63;1.45;;;20.10;99.90;;;;;;4160646;28;20259;-76
2022/11/17 05:19:50;;;;;;;2.88;1.23;;;20.10;99.90;;;;;;4159770;28;20270;-76
2022/11/17 05:21:52;;;;;;;2.45;1.38;;;20.10;99.90;;;;;;4158117;28;20274;-75
2022/11/17 05:23:54;;;;;;;2.70;1.45;;;20.10;99.90;;;;;;4160626;28;20582;-76
2022/11/17 05:25:56;;;;;;;2.92;1.40;;;20.10;99.90;;;;;;4159572;28;20644;-76
2022/11/17 05:27:59;;;;;;;3.42;1.25;;;20.10;99.90;;;;;;4163427;28;20274;-76
2022/11/17 05:30:01;;;;;;;4.75;1.40;;;20.10;99.90;;;;;;4162512;28;20224;-76
2022/11/17 05:32:04;;;;;;;3.13;1.35;;;20.10;99.90;;;;;;4162180;28;20315;-77
2022/11/17 05:34:08;;;;;;;2.55;1.35;;;20.10;99.90;;;;;;4161771;28;20216;-76
2022/11/17 05:36:11;;;;;;;3.90;1.77;;;20.10;99.90;;;;;;4161082;28;20220;-76
2022/11/17 05:38:13;;;;;;;2.15;1.25;;;20.00;99.90;;;;;;4159576;28;20224;-77
2022/11/17 05:40:16;;;;;;;4.47;1.65;;;20.00;99.90;;;;;;4160751;28;20216;-76
2022/11/17 05:42:20;;;;;;;4.43;1.77;;;20.10;99.90;;;;;;4165001;28;20266;-76
2022/11/17 05:44:22;;;;;;;2.58;1.25;;;20.00;99.90;;;;;;4156259;28;20621;-76
2022/11/17 05:46:25;;;;;;;4.30;1.35;;;20.10;99.90;;;;;;4163318;28;20294;-76
2022/11/17 05:48:27;;;;;;;4.32;1.70;;;20.00;99.90;;;;;;4160322;28;20623;-76
2022/11/17 05:50:29;;;;;;;2.55;1.30;;;20.00;99.90;;;;;;4155585;28;20263;-76
2022/11/17 05:52:32;;;;;;;3.35;1.27;;;20.00;99.90;;;;;;4160577;28;20727;-76
2022/11/17 05:54:34;;;;;;;2.33;1.30;;;20.00;99.90;;;;;;4161761;28;20224;-76
2022/11/17 05:56:39;;;;;;;3.08;1.35;;;19.90;99.90;;;;;;4158752;28;20213;-75
2022/11/17 05:58:47;;;;;;;3.85;1.52;;;20.00;99.90;;;;;;4167005;28;20278;-76
2022/11/17 06:00:51;;;;;;;3.10;1.20;;;20.00;99.90;;;;;;4179366;28;20556;-76
2022/11/17 06:02:59;;;;;;;2.05;1.10;;;20.00;99.90;;;;;;4173618;28;20258;-77
2022/11/17 06:05:02;;;;;;;4.45;1.70;;;20.00;99.90;;;;;;4177185;28;20210;-75
2022/11/17 06:07:04;;;;;;;3.47;1.20;;;20.00;99.90;;;;;;4172476;28;20274;-77
2022/11/17 06:09:06;;;;;;;2.72;1.30;;;20.00;99.90;;;;;;4176585;28;20626;-78
2022/11/17 06:11:09;;;;;;;2.80;1.30;;;20.10;99.90;;;;;;4176858;28;20292;-77
2022/11/17 06:13:11;;;;;;;2.63;1.40;;;20.10;99.90;;;;;;4173221;28;20216;-77
2022/11/17 06:15:15;;;;;;;3.30;1.30;;;20.10;99.90;;;;;;4176911;28;20692;-76
2022/11/17 06:17:22;;;;;;;2.78;1.30;;;20.10;99.90;;;;;;4177075;28;20278;-77
2022/11/17 06:19:29;;;;;;;3.65;1.23;;;20.10;99.90;;;;;;4173876;28;20224;-76
2022/11/17 06:21:34;;;;;;;2.28;1.38;;;20.10;99.90;;;;;;4176456;28;20211;-76
2022/11/17 06:23:37;;;;;;;2.13;1.05;;;20.10;99.90;;;;;;4176003;28;20224;-77
2022/11/17 06:25:40;;;;;;;2.95;1.40;;;20.10;99.90;;;;;;4173995;28;20227;-77
2022/11/17 06:27:42;;;;;;;2.90;1.30;;;20.20;99.90;;;;;;4177031;28;20237;-77
2022/11/17 06:29:45;;;;;;;3.35;1.25;;;20.20;99.90;;;;;;4176828;28;20224;-77
2022/11/17 06:31:49;;;;;;;2.08;1.20;;;20.20;99.90;;;;;;4173005;28;20215;-77
2022/11/17 06:33:52;;;;;;;3.58;1.30;;;20.20;99.90;;;;;;4176568;28;20219;-76
2022/11/17 06:35:54;;;;;;;2.85;1.20;;;20.20;99.90;;;;;;4173541;28;20216;-78
2022/11/17 06:37:56;;;;;;;3.47;1.30;;;20.20;99.90;;;;;;4177487;28;20282;-77
2022/11/17 06:39:59;;;;;;;2.40;1.10;;;20.30;99.90;;;;;;4176126;28;20277;-77
2022/11/17 06:42:01;;;;;;;2.63;1.00;;;20.30;99.90;;;;;;4170735;28;20823;-77
2022/11/17 06:44:03;;;;;;;3.03;0.98;;;20.40;99.90;;;;;;4175201;28;20258;-76
2022/11/17 06:46:06;;;;;;;2.28;0.98;;;20.40;99.90;;;;;;4175749;28;20239;-77
2022/11/17 06:48:11;;;;;;;3.03;1.20;;;20.40;99.90;;;;;;4174508;28;20252;-76
2022/11/17 06:50:14;;;;;;;2.83;1.30;;;20.40;99.90;;;;;;4175924;28;20718;-76
2022/11/17 06:52:16;;;;;;;3.30;0.93;;;20.40;99.90;;;;;;4175572;28;20294;-77
2022/11/17 06:54:18;;;;;;;1.60;1.10;;;20.50;99.90;;;;;;4174965;28;20204;-76
2022/11/17 06:56:21;;;;;;;1.77;1.17;;;20.50;99.90;;;;;;4174927;28;20265;-76
2022/11/17 06:58:23;;;;;;;3.30;1.02;;;20.50;99.90;;;;;;4173925;28;20236;-76
2022/11/17 07:00:26;;;;;;;3.28;1.13;;;20.50;99.90;;;;;;4169399;28;20278;-77
2022/11/17 07:02:30;;;;;;;2.50;1.08;;;20.50;99.90;;;;;;4174233;28;20261;-76
2022/11/17 07:04:34;;;;;;;1.23;0.95;;;20.50;99.90;;;;;;4176560;28;20228;-77
2022/11/17 07:06:36;;;;;;;1.30;0.93;;;20.60;99.90;;;;;;4175452;28;20289;-77
2022/11/17 07:08:39;;;;;;;1.63;0.82;;;20.60;99.90;;;;;;4176588;28;20257;-76
2022/11/17 07:10:41;;;;;;;1.25;0.88;;;20.60;99.90;;;;;;4176535;28;20215;-77
2022/11/17 07:12:45;;;;;;;1.88;0.90;;;20.60;99.90;;;;;;4175840;28;20216;-76
2022/11/17 07:14:48;;;;;;;2.17;1.02;;;20.60;99.90;;;;;;4172190;28;20227;-77
2022/11/17 07:16:50;;;;;;;1.80;0.93;;;20.60;99.90;;;;;;4176455;28;20275;-77
2022/11/17 07:18:53;;;;;;;2.58;0.90;;;20.60;99.90;;;;;;4176709;28;20282;-77
2022/11/17 07:20:59;;;;;;;2.30;0.93;;;20.60;99.90;;;;;;4171214;28;20216;-77
2022/11/17 07:23:02;;;;;;;1.85;0.90;;;20.60;99.90;;;;;;4176825;28;20672;-77
2022/11/17 07:25:05;;;;;;;3.20;1.00;;;20.70;99.90;;;;;;4176575;28;20622;-77
2022/11/17 07:27:07;;;;;;;1.70;0.73;;;20.70;99.90;;;;;;4172592;28;20278;-76
2022/11/17 07:29:09;;;;;;;3.65;1.08;;;20.70;99.90;;;;;;4177202;28;20342;-77
2022/11/17 07:31:12;;;;;;;4.22;1.10;;;20.70;99.90;;;;;;4175925;28;20613;-76
2022/11/17 07:33:14;;;;;;;3.75;1.10;;;20.70;99.90;;;;;;4171452;28;20274;-77
2022/11/17 07:35:16;;;;;;;2.70;1.00;;;20.70;99.90;;;;;;4176013;28;20215;-77
2022/11/17 07:37:20;;;;;;;3.20;0.95;;;20.70;99.90;;;;;;4173945;28;20216;-77
2022/11/17 07:39:22;;;;;;;2.65;0.93;;;20.70;99.90;;;;;;4174133;28;20287;-77
2022/11/17 07:41:25;;;;;;;1.35;0.90;;;20.70;99.90;;;;;;4176342;28;20340;-76
2022/11/17 07:43:27;;;;;;;1.92;0.90;;;20.70;99.90;;;;;;4176875;28;20281;-77
2022/11/17 07:45:29;;;;;;;1.75;0.70;;;20.70;99.90;;;;;;4176080;28;20316;-76
2022/11/17 07:47:32;;;;;;;4.38;1.13;;;20.70;99.90;;;;;;4178784;28;20281;-76
2022/11/17 07:49:34;;;;;;;3.67;1.05;;;20.70;99.90;;;;;;4173959;28;20258;-77
2022/11/17 07:51:36;;;;;;;1.88;0.80;;;20.80;99.90;;;;;;4175978;28;20292;-77
2022/11/17 07:53:40;;;;;;;5.30;0.98;;;20.80;99.90;;;;;;4178893;28;20270;-76
2022/11/17 07:55:42;;;;;;;4.38;0.98;;;20.70;99.90;;;;;;4179282;28;21016;-76
2022/11/17 07:57:45;;;;;;;1.90;0.82;;;20.70;99.90;;;;;;4178167;28;20212;-76
2022/11/17 07:59:48;;;;;;;2.42;0.70;;;20.60;99.90;;;;;;4167954;28;20283;-75
2022/11/17 08:01:50;;;;;;;10.85;1.30;;;20.70;99.90;;;;;;4154583;28;20620;-76
2022/11/17 08:03:52;;;;;;;5.93;1.25;;;20.70;99.90;;;;;;4159191;28;20213;-75
2022/11/17 08:05:55;;;;;;;9.05;1.30;;;20.80;99.90;;;;;;4155833;28;20213;-76
2022/11/17 08:07:59;;;;;;;2.80;0.93;;;20.90;99.90;;;;;;4157113;28;20333;-76
2022/11/17 08:10:02;;;;;;;4.43;1.00;;;21.00;99.90;;;;;;4155857;28;20278;-74
2022/11/17 08:12:05;;;;;;;7.30;1.02;;;21.00;99.90;;;;;;4154287;28;20618;-74
2022/11/17 08:14:08;;;;;;;1.90;0.90;;;21.00;99.90;;;;;;4160161;28;20291;-76
2022/11/17 08:16:11;;;;;;;4.20;1.20;;;21.00;99.90;;;;;;4161164;28;20618;-76
2022/11/17 08:18:13;;;;;;;4.63;1.15;;;21.10;99.90;;;;;;4158179;28;20666;-75
2022/11/17 08:20:16;;;;;;;2.47;0.90;;;21.10;99.90;;;;;;4157455;28;20581;-75
2022/11/17 08:22:18;;;;;;;3.80;0.93;;;21.10;99.90;;;;;;4151982;28;20314;-74
2022/11/17 08:24:20;;;;;;;6.95;1.02;;;21.10;99.90;;;;;;4153808;28;20221;-74
2022/11/17 08:26:24;;;;;;;2.90;0.90;;;21.20;99.90;;;;;;4159677;28;20208;-74
2022/11/17 08:28:26;;;;;;;2.13;0.75;;;21.20;99.90;;;;;;4160947;28;20750;-75
2022/11/17 08:30:30;;;;;;;5.45;1.42;;;21.20;99.90;;;;;;4159651;28;20212;-76
2022/11/17 08:32:32;;;;;;;5.18;1.05;;;21.20;99.90;;;;;;4160117;28;20213;-77
2022/11/17 08:34:34;;;;;;;4.80;0.98;;;21.30;99.90;;;;;;4160889;28;20220;-76
2022/11/17 08:36:37;;;;;;;4.30;1.00;;;21.30;99.90;;;;;;4161021;28;20209;-75
2022/11/17 08:38:39;;;;;;;3.30;1.00;;;21.30;99.90;;;;;;4152053;28;20217;-76
2022/11/17 08:40:42;;;;;;;3.33;0.93;;;21.20;99.90;;;;;;4152069;28;20217;-76
2022/11/17 08:42:46;;;;;;;2.28;0.95;;;21.30;99.90;;;;;;4153266;28;20257;-75
2022/11/17 08:44:48;;;;;;;2.83;1.02;;;21.30;99.90;;;;;;4157924;28;20217;-75
2022/11/17 08:46:50;;;;;;;5.15;1.10;;;21.40;99.90;;;;;;4152299;28;20220;-75
2022/11/17 08:48:53;;;;;;;4.70;1.02;;;21.30;99.90;;;;;;4155002;28;20217;-75
2022/11/17 08:50:55;;;;;;;2.78;1.13;;;21.30;99.90;;;;;;4158723;28;20216;-75
2022/11/17 08:52:58;;;;;;;6.65;1.20;;;21.40;99.90;;;;;;4158396;28;20224;-74
2022/11/17 08:55:00;;;;;;;3.17;0.85;;;21.30;99.90;;;;;;4153473;28;20267;-74
2022/11/17 08:57:03;;;;;;;3.30;1.08;;;21.30;99.90;;;;;;4153905;28;20221;-74
2022/11/17 08:59:08;;;;;;;5.43;0.80;;;21.40;99.90;;;;;;4165172;28;20239;-73
2022/11/17 09:01:11;;;;;;;2.50;0.80;;;21.50;99.90;;;;;;4177741;28;20223;-73
2022/11/17 09:03:13;;;;;;;3.70;1.30;;;21.50;99.90;;;;;;4170685;28;20219;-74
2022/11/17 09:05:15;;;;;;;5.22;1.00;;;21.50;99.90;;;;;;4176907;28;20208;-73
2022/11/17 09:07:19;;;;;;;6.63;1.45;;;21.50;99.90;;;;;;4173673;28;20291;-72
2022/11/17 09:09:22;;;;;;;6.22;1.13;;;21.60;99.90;;;;;;4170776;28;20254;-74
2022/11/17 09:11:24;;;;;;;4.95;1.02;;;21.60;99.90;;;;;;4165543;28;20216;-73
2022/11/17 09:13:26;;;;;;;4.80;1.10;;;21.60;99.90;;;;;;4165327;28;20262;-74
2022/11/17 09:15:31;;;;;;;2.63;0.90;;;21.60;99.90;;;;;;4178008;28;20223;-73
2022/11/17 09:17:33;;;;;;;4.40;0.98;;;21.60;99.90;;;;;;4176895;28;20305;-72
2022/11/17 09:19:38;;;;;;;6.13;1.30;;;21.70;99.90;;;;;;4177886;28;20286;-73
2022/11/17 09:21:41;;;;;;;4.30;1.10;;;21.60;99.90;;;;;;4175361;28;20215;-74
2022/11/17 09:23:43;;;;;;;4.05;1.10;;;21.60;99.90;;;;;;4168403;28;20208;-75
2022/11/17 09:25:45;;;;;;;8.25;1.17;;;21.70;99.90;;;;;;4171300;28;20212;-74
2022/11/17 09:27:50;;;;;;;2.05;0.75;;;21.80;99.90;;;;;;4177619;28;20228;-75
2022/11/17 09:29:52;;;;;;;3.60;1.00;;;21.70;99.90;;;;;;4178699;28;20622;-74
2022/11/17 09:31:56;;;;;;;5.45;1.13;;;21.70;99.90;;;;;;4173394;28;20220;-74
2022/11/17 09:33:58;;;;;;;4.45;0.90;;;21.70;99.90;;;;;;4173105;28;20227;-74
2022/11/17 09:36:01;;;;;;;2.60;1.10;;;21.70;99.90;;;;;;4172482;28;20251;-74
2022/11/17 09:38:05;;;;;;;3.67;0.88;;;21.70;99.90;;;;;;4170023;28;20727;-74
2022/11/17 09:40:13;;;;;;;4.35;0.98;;;21.70;99.90;;;;;;4185391;28;20211;-75
2022/11/17 09:42:19;;;;;;;3.50;0.95;;;21.70;99.90;;;;;;4173397;28;20648;-76
2022/11/17 09:44:38;;;;;;;3.03;0.70;;;21.80;99.90;;;;;;4167218;28;20298;-72
2022/11/17 09:46:51;;;;;;;3.22;1.00;;;21.80;99.90;;;;;;4171565;28;20239;-72
2022/11/17 09:49:05;;;;;;;2.25;0.80;;;21.80;99.90;;;;;;4179550;28;20800;-73
2022/11/17 09:51:11;;;;;;;4.10;1.15;;;21.80;99.90;;;;;;4176101;28;20224;-72
2022/11/17 09:53:23;;;;;;;4.75;1.17;;;21.80;99.90;;;;;;4172186;28;20329;-73
2022/11/17 09:55:31;;;;;;;4.18;0.80;;;21.80;99.90;;;;;;4165734;28;20211;-75
2022/11/17 09:57:38;;;;;;;4.20;1.23;;;21.90;99.90;;;;;;4173352;28;20215;-76
2022/11/17 09:59:42;;;;;;;3.42;0.90;;;21.90;99.90;;;;;;4175016;28;20593;-73
2022/11/17 10:01:44;;;;;;;2.65;1.33;;;21.90;99.90;;;;;;4176446;28;20212;-75
2022/11/17 10:03:48;;;;;;;4.45;1.02;;;21.90;99.90;;;;;;4174425;28;20263;-73
2022/11/17 10:05:53;;;;;;;5.40;1.23;;;22.10;99.90;;;;;;4172131;28;20659;-71
2022/11/17 10:07:59;;;;;;;5.32;1.00;;;22.10;99.90;;;;;;4175195;28;20232;-74
2022/11/17 10:10:05;;;;;;;7.65;1.08;;;22.10;99.90;;;;;;4178589;28;20656;-72
2022/11/17 10:12:18;;;;;;;7.93;1.13;;;22.20;99.90;;;;;;4169930;28;20262;-74
2022/11/17 10:14:22;;;;;;;5.63;1.13;;;22.20;99.90;;;;;;4171028;28;20357;-75
2022/11/17 10:16:24;;;;;;;4.82;1.13;;;22.20;99.90;;;;;;4175530;28;20617;-73
2022/11/17 10:18:28;;;;;;;6.03;1.08;;;22.10;99.90;;;;;;4174672;28;20211;-77
2022/11/17 10:20:34;;;;;;;3.35;0.82;;;22.10;99.90;;;;;;4178881;28;20622;-79
2022/11/17 10:22:41;;;;;;;4.03;1.27;;;22.10;99.90;;;;;;4172501;28;20223;-75
2022/11/17 10:24:46;;;;;;;5.40;1.27;;;22.00;99.90;;;;;;4169858;28;20214;-77
2022/11/17 10:26:49;;;;;;;3.22;1.17;;;22.00;99.90;;;;;;4170388;28;20222;-76
2022/11/17 10:29:06;;;;;;;2.92;1.00;;;22.10;99.90;;;;;;4176379;28;20706;-78
2022/11/17 10:31:12;;;;;;;4.38;0.90;;;22.00;99.90;;;;;;4174620;28;20286;-77
2022/11/17 10:33:14;;;;;;;4.35;1.23;;;22.10;99.90;;;;;;4171157;28;20212;-77
2022/11/17 10:35:19;;;;;;;2.60;1.02;;;22.00;99.90;;;;;;4174134;28;20633;-76
2022/11/17 10:37:30;;;;;;;6.55;0.90;;;22.10;99.90;;;;;;4170668;28;20257;-77
2022/11/17 10:39:36;;;;;;;5.10;0.77;;;22.10;99.90;;;;;;4171466;28;20294;-75
2022/11/17 10:41:42;;;;;;;4.38;1.13;;;22.00;99.90;;;;;;4169720;28;20215;-74
2022/11/17 10:43:55;;;;;;;8.48;1.08;;;22.10;99.90;;;;;;4171604;28;20914;-80
2022/11/17 10:46:02;;;;;;;4.20;1.00;;;22.10;99.90;;;;;;4175566;28;20294;-77
2022/11/17 10:48:26;;;;;;;2.90;1.08;;;22.20;99.90;;;;;;4175030;28;20234;-75
2022/11/17 10:50:28;;;;;;;5.85;0.90;;;22.30;99.90;;;;;;4177558;28;20219;-74
2022/11/17 10:52:31;;;;;;;5.50;1.10;;;22.20;99.90;;;;;;4181145;28;20333;-74
2022/11/17 10:54:34;;;;;;;4.28;1.05;;;22.20;99.90;;;;;;4177264;28;20266;-75
2022/11/17 10:56:43;;;;;;;6.32;1.10;;;22.20;99.90;;;;;;4166404;28;21025;-75
2022/11/17 10:59:11;;;;;;;3.03;0.80;;;22.20;99.90;;;;;;4170635;28;20294;-75
2022/11/17 11:01:13;;;;;;;2.72;1.20;;;22.20;99.90;;;;;;4155973;28;20992;-75
2022/11/17 11:03:18;;;;;;;6.32;1.10;;;22.20;99.90;;;;;;4170432;28;20219;-75
2022/11/17 11:05:20;;;;;;;5.22;1.42;;;22.30;99.90;;;;;;4171015;28;20272;-76
2022/11/17 11:07:23;;;;;;;4.88;1.20;;;22.30;99.90;;;;;;4171580;28;20261;-75
2022/11/17 11:09:27;;;;;;;2.08;1.23;;;22.30;99.90;;;;;;4170089;28;20236;-76
2022/11/17 11:11:40;;;;;;;5.55;1.33;;;22.40;99.90;;;;;;4171679;28;20349;-74
2022/11/17 11:13:48;;;;;;;3.97;1.02;;;22.50;99.90;;;;;;4171141;28;20766;-74
2022/11/17 11:15:52;;;;;;;6.47;1.10;;;22.40;99.90;;;;;;4176157;28;20615;-75